Weather History for PAHP - March, 2014

Change the Weather History Date:

Sunday, March 2, 2014

  Actual Average Record
Temperature  
Mean Temperature 29 °F -  
Max Temperature 37 °F 17 °F 37 °F (2014)
Min Temperature 21 °F 8 °F -14 °F (1997)
Degree Days  
Heating Degree Days 36    
Moisture  
Dew Point 17 °F    
Average Humidity 57    
Maximum Humidity 80    
Minimum Humidity 45    
Precipitation  
Precipitation 0.01 in - - ()
Sea Level Pressure  
Sea Level Pressure 30.07 in    
Wind  
Wind Speed 18 mph (NE)    
Max Wind Speed 26 mph    
Max Gust Speed 32 mph    
Visibility 10 miles    
Events      
Averages and records for this station are not official NWS values.
T = Trace of Precipitation, MM = Missing Value Source: NWS Daily Summary

Daily Weather History Graph

Daily Weather History Graph

Search for Another Location

Airport or City:

Trip Planner

Search our weather history database for the weather conditions in past years. The results will help you decide how hot, cold, wet, or windy it might be!

Date:

Astronomy

Mar. 02, 2014 Rise Set
Actual Time 9:02 AM AKST 7:32 PM AKST
Civil Twilight 8:18 AM AKST 8:16 PM AKST
Nautical Twilight 7:27 AM AKST 9:06 PM AKST
Astronomical Twilight 6:36 AM AKST 9:58 PM AKST
Moon 9:03 AM AKST (3/2) 10:30 PM AKST (3/2)
Length of Visible Light 11h 58m
Length of Day
10h 30m
Waxing Crescent, 3% of the Moon is Illuminated
Mar 2
Waxing Crescent
Mar 8
First Quarter
Mar 16
Full
Mar 23
Last Quarter
Mar 30
New

Hourly Weather History & Observations

Time (AKST) Temp. Windchill Dew Point Humidity Pressure Visibility Wind Dir Wind Speed Gust Speed Precip Events Conditions
12:16 AM 33.8 °F 21.0 °F 19.4 °F 56% 30.06 in 10.0 mi NE 25.3 mph - N/A   Clear
12:36 AM 33.8 °F 21.0 °F 17.6 °F 52% 30.06 in 10.0 mi NE 25.3 mph - N/A   Clear
12:56 AM 33.8 °F 21.9 °F 19.4 °F 56% 30.07 in 10.0 mi NE 21.9 mph - N/A   Clear
1:16 AM 33.8 °F 21.9 °F 19.4 °F 56% 30.06 in 10.0 mi NE 21.9 mph - N/A   Clear
1:36 AM 33.8 °F 21.3 °F 17.6 °F 52% 30.06 in 10.0 mi NE 24.2 mph - N/A   Clear
1:56 AM 33.8 °F 21.0 °F 17.6 °F 52% 30.06 in 10.0 mi NE 25.3 mph - N/A   Clear
2:16 AM 32.0 °F 19.2 °F 19.4 °F 60% 30.06 in 10.0 mi NE 23.0 mph - N/A   Clear
2:36 AM 30.2 °F 17.8 °F 17.6 °F 60% 30.06 in 10.0 mi NE 19.6 mph - N/A   Clear
2:56 AM 30.2 °F 17.1 °F 17.6 °F 60% 30.06 in 10.0 mi ENE 21.9 mph - N/A   Clear
3:16 AM 30.2 °F 16.2 °F 17.6 °F 60% 30.06 in 10.0 mi NE 25.3 mph - N/A   Clear
3:36 AM 33.8 °F 21.0 °F 17.6 °F 52% 30.07 in 10.0 mi NE 25.3 mph - N/A   Clear
3:56 AM 28.4 °F 14.1 °F 17.6 °F 64% 30.06 in 10.0 mi NE 24.2 mph 32.2 mph N/A   Clear
4:16 AM 30.2 °F 17.1 °F 19.4 °F 64% 30.06 in 10.0 mi NE 21.9 mph - N/A   Clear
4:36 AM 30.2 °F 19.3 °F 17.6 °F 60% 30.07 in 10.0 mi NE 15.0 mph - N/A   Clear
4:56 AM 30.2 °F 18.1 °F 17.6 °F 60% 30.06 in 10.0 mi NE 18.4 mph - N/A   Clear
5:16 AM 30.2 °F 18.1 °F 17.6 °F 60% 30.06 in 10.0 mi NNE 18.4 mph - N/A   Clear
5:36 AM 30.2 °F 19.8 °F 15.8 °F 55% 30.06 in 10.0 mi NE 13.8 mph - N/A   Clear
5:56 AM 30.2 °F 18.9 °F 19.4 °F 64% 30.07 in 10.0 mi NE 16.1 mph - N/A   Clear
6:16 AM 30.2 °F 24.3 °F 17.6 °F 60% 30.07 in 10.0 mi NE 5.8 mph - N/A   Clear
6:36 AM 30.2 °F 19.8 °F 14.0 °F 51% 30.08 in 10.0 mi North 13.8 mph - N/A   Clear
6:56 AM 28.4 °F 22.2 °F 17.6 °F 64% 30.09 in 10.0 mi ENE 5.8 mph - N/A   Clear
7:16 AM 28.4 °F 19.7 °F 15.8 °F 59% 30.09 in 10.0 mi North 9.2 mph - N/A   Clear
7:36 AM 26.6 °F 18.2 °F 15.8 °F 64% 30.09 in 10.0 mi ENE 8.1 mph - N/A   Clear
7:56 AM 21.2 °F 9.5 °F 10.4 °F 63% 30.09 in 10.0 mi North 11.5 mph - N/A   Clear
8:16 AM 26.6 °F 16.8 °F 15.8 °F 64% 30.08 in 10.0 mi NNE 10.4 mph - N/A   Clear
8:36 AM 21.2 °F 8.9 °F 12.2 °F 68% 30.09 in 10.0 mi NNE 12.7 mph - N/A   Clear
8:56 AM 23.0 °F 10.6 °F 17.6 °F 80% 30.08 in 10.0 mi NNE 13.8 mph - N/A   Clear
9:16 AM 23.0 °F 10.1 °F 15.8 °F 74% 30.08 in 10.0 mi NNE 15.0 mph - N/A   Clear
9:36 AM 26.6 °F 15.2 °F 15.8 °F 64% 30.08 in 10.0 mi North 13.8 mph - N/A   Clear
9:56 AM 26.6 °F 14.3 °F 15.8 °F 64% 30.07 in 10.0 mi NNE 16.1 mph - N/A   Clear
10:16 AM 30.2 °F 19.8 °F 17.6 °F 60% 30.07 in 10.0 mi North 13.8 mph - N/A   Clear
10:36 AM 26.6 °F 18.2 °F 15.8 °F 64% 30.07 in 10.0 mi NNE 8.1 mph - N/A   Clear
10:56 AM 28.4 °F 19.1 °F 15.8 °F 59% 30.07 in 10.0 mi NNE 10.4 mph 16.1 mph N/A   Clear
11:16 AM 32.0 °F 21.6 °F 15.8 °F 51% 30.07 in 10.0 mi North 15.0 mph - N/A   Clear
11:36 AM 30.2 °F 21.9 °F 15.8 °F 55% 30.08 in 10.0 mi NNE 9.2 mph - N/A   Clear
11:56 AM 33.8 °F 25.8 °F 17.6 °F 52% 30.07 in 10.0 mi NNE 10.4 mph - N/A   Clear
12:16 PM 33.8 °F 28.6 °F 15.8 °F 48% 30.07 in 10.0 mi NNE 5.8 mph - N/A   Clear
12:36 PM 33.8 °F 25.8 °F 17.6 °F 52% 30.07 in 10.0 mi NNE 10.4 mph 18.4 mph 0.01 in   Clear
12:56 PM 33.8 °F 26.4 °F 17.6 °F 52% 30.08 in 10.0 mi NNE 9.2 mph - 0.01 in   Clear
1:16 PM 37.4 °F 29.8 °F 19.4 °F 48% 30.08 in 10.0 mi NE 11.5 mph 16.1 mph N/A   Clear
1:36 PM 37.4 °F 29.8 °F 19.4 °F 48% 30.07 in 10.0 mi North 11.5 mph 16.1 mph N/A   Clear
1:56 PM 37.4 °F 32.1 °F 17.6 °F 45% 30.07 in 10.0 mi North 6.9 mph - N/A   Clear
2:16 PM 37.4 °F 32.1 °F 19.4 °F 48% 30.07 in 10.0 mi NE 6.9 mph - N/A   Clear
2:36 PM 37.4 °F 26.6 °F 19.4 °F 48% 30.07 in 10.0 mi NNE 21.9 mph - N/A   Clear
2:56 PM 35.6 °F 25.9 °F 19.4 °F 52% 30.06 in 10.0 mi NE 16.1 mph - N/A   Clear
3:16 PM 37.4 °F 28.5 °F 21.2 °F 52% 30.06 in 10.0 mi NE 15.0 mph - N/A   Clear
3:36 PM 35.6 °F 26.6 °F 19.4 °F 52% 30.06 in 5.0 mi NNE 13.8 mph - N/A   Clear
3:56 PM 35.6 °F 24.8 °F 21.2 °F 56% 30.05 in 10.0 mi NNE 19.6 mph 24.2 mph N/A   Clear
4:16 PM 35.6 °F 28.0 °F 19.4 °F 52% 30.05 in 10.0 mi NNE 10.4 mph - N/A   Clear
4:36 PM 35.6 °F 25.5 °F 19.4 °F 52% 30.05 in 10.0 mi NNE 17.3 mph - N/A   Clear
4:56 PM 35.6 °F 29.2 °F 19.4 °F 52% 30.05 in 10.0 mi NNE 8.1 mph - N/A   Clear
5:16 PM 35.6 °F 25.5 °F 19.4 °F 52% 30.05 in 10.0 mi NE 17.3 mph - N/A   Clear
5:36 PM 33.8 °F 27.0 °F 17.6 °F 52% 30.06 in 10.0 mi NNE 8.1 mph - N/A   Clear
5:56 PM 33.8 °F 24.8 °F 17.6 °F 52% 30.06 in 10.0 mi NNE 12.7 mph - N/A   Clear
6:16 PM 33.8 °F 25.8 °F 17.6 °F 52% 30.06 in 10.0 mi NE 10.4 mph - N/A   Clear
6:36 PM 30.2 °F 16.8 °F 15.8 °F 55% 30.05 in 10.0 mi NE 23.0 mph 28.8 mph N/A   Clear
6:56 PM 32.0 °F 23.6 °F 17.6 °F 55% 30.06 in 10.0 mi NNE 10.4 mph - N/A   Clear
7:16 PM 30.2 °F 17.1 °F 15.8 °F 55% 30.05 in 10.0 mi NE 21.9 mph - N/A   Clear
7:36 PM 30.2 °F 23.4 °F 15.8 °F 55% 30.06 in 10.0 mi North 6.9 mph - N/A   Clear
7:56 PM 28.4 °F 16.6 °F 15.8 °F 59% 30.06 in 10.0 mi NE 16.1 mph 24.2 mph N/A   Clear
8:16 PM 28.4 °F 15.4 °F 15.8 °F 59% 30.07 in 10.0 mi NE 19.6 mph 23.0 mph N/A   Clear
8:36 PM 28.4 °F 14.1 °F 15.8 °F 59% 30.07 in 10.0 mi NE 24.2 mph - N/A   Clear
8:56 PM 28.4 °F 16.6 °F 12.2 °F 51% 30.08 in 10.0 mi NNE 16.1 mph 23.0 mph N/A   Clear
9:16 PM 28.4 °F 14.7 °F 15.8 °F 59% 30.07 in 10.0 mi NE 21.9 mph - N/A   Clear
9:36 PM 28.4 °F 15.8 °F 15.8 °F 59% 30.07 in 10.0 mi NE 18.4 mph - N/A   Clear
9:56 PM 28.4 °F 14.1 °F 14.0 °F 55% 30.07 in 10.0 mi NE 24.2 mph - N/A   Clear
10:16 PM 28.4 °F 14.1 °F 12.2 °F 51% 30.08 in 10.0 mi NE 24.2 mph - N/A   Clear
10:36 PM 28.4 °F 13.5 °F 14.0 °F 55% 30.07 in 9.0 mi NE 26.5 mph - N/A   Clear
10:56 PM 26.6 °F 12.7 °F 15.8 °F 64% 30.08 in 10.0 mi NE 20.7 mph 25.3 mph N/A   Clear
11:16 PM 26.6 °F 12.4 °F 14.0 °F 59% 30.08 in 10.0 mi NE 21.9 mph - N/A   Clear
11:36 PM 26.6 °F 14.7 °F 15.8 °F 64% 30.09 in 10.0 mi NE 15.0 mph - N/A   Clear
11:56 PM 26.6 °F 12.7 °F 17.6 °F 69% 30.07 in 10.0 mi NE 20.7 mph - N/A   Clear